createdAt,value
2019-04-30T00:02:16.218Z,51.68
2019-04-30T00:04:42.222Z,51.69
2019-04-30T00:07:10.199Z,51.66
2019-04-30T00:09:35.138Z,51.66
2019-04-30T00:12:01.418Z,51.63
2019-04-30T00:14:32.023Z,51.63
2019-04-30T00:16:52.294Z,51.62
2019-04-30T00:19:19.776Z,51.58
2019-04-30T00:21:50.079Z,51.59
2019-04-30T00:24:10.464Z,51.60
2019-04-30T00:26:39.857Z,51.57
2019-04-30T00:29:02.318Z,51.53
2019-04-30T00:31:28.341Z,51.55
2019-04-30T00:33:57.875Z,51.56
2019-04-30T00:36:20.353Z,51.50
2019-04-30T00:38:46.371Z,51.53
2019-04-30T00:41:12.366Z,51.51
2019-04-30T00:43:46.593Z,51.47
2019-04-30T00:46:05.032Z,51.46
2019-04-30T00:48:31.286Z,51.49
2019-04-30T00:50:56.426Z,51.46
2019-04-30T00:53:22.424Z,51.48
2019-04-30T00:55:48.622Z,51.47
2019-04-30T00:58:19.714Z,51.45
2019-04-30T01:00:40.460Z,51.44
2019-04-30T01:03:09.357Z,51.43
2019-04-30T01:05:32.471Z,51.43
2019-04-30T01:07:58.491Z,51.38
2019-04-30T01:10:28.234Z,51.39
2019-04-30T01:12:50.504Z,51.37
2019-04-30T01:15:16.494Z,51.39
2019-04-30T01:17:45.280Z,51.39
2019-04-30T01:20:09.413Z,51.37
2019-04-30T01:22:34.539Z,51.33
2019-04-30T01:25:07.691Z,51.35
2019-04-30T01:27:28.332Z,51.33
2019-04-30T01:29:52.575Z,51.35
2019-04-30T01:32:20.976Z,51.33
2019-04-30T01:34:49.990Z,51.32
2019-04-30T01:37:11.856Z,51.31
2019-04-30T01:39:36.684Z,51.29
2019-04-30T01:42:02.895Z,51.28
2019-04-30T01:44:29.513Z,51.29
2019-04-30T01:46:54.713Z,51.25
2019-04-30T01:49:25.735Z,51.27
2019-04-30T01:51:48.556Z,51.27
2019-04-30T01:54:13.687Z,51.26
2019-04-30T01:56:38.993Z,51.24
2019-04-30T01:59:04.774Z,51.24
2019-04-30T02:01:31.113Z,51.24
2019-04-30T02:03:58.503Z,51.23
2019-04-30T02:06:22.834Z,51.23
2019-04-30T02:08:49.384Z,51.23
2019-04-30T02:11:14.849Z,51.22
2019-04-30T02:13:40.846Z,51.22
2019-04-30T02:16:08.530Z,51.21
2019-04-30T02:18:32.889Z,51.19
2019-04-30T02:20:59.447Z,51.19
2019-04-30T02:23:24.896Z,51.21
2019-04-30T02:25:50.903Z,51.19
2019-04-30T02:28:18.489Z,51.19
2019-04-30T02:30:42.920Z,51.20
2019-04-30T02:33:09.609Z,51.18
2019-04-30T02:35:34.949Z,51.19
2019-04-30T02:38:00.943Z,51.20
2019-04-30T02:40:30.004Z,51.18
2019-04-30T02:42:52.950Z,51.19
2019-04-30T02:45:19.808Z,51.18
2019-04-30T02:47:44.965Z,51.18
2019-04-30T02:50:17.721Z,51.19
2019-04-30T02:52:36.977Z,51.20
2019-04-30T02:55:02.977Z,51.19
2019-04-30T02:57:29.956Z,51.19
2019-04-30T02:59:55.062Z,51.18
2019-04-30T03:02:21.107Z,51.18
2019-04-30T03:04:47.128Z,51.20
2019-04-30T03:07:13.150Z,51.19
2019-04-30T03:09:39.410Z,51.19
2019-04-30T03:12:05.172Z,51.19
2019-04-30T03:14:31.212Z,51.20
2019-04-30T03:16:59.886Z,51.18
2019-04-30T03:19:23.224Z,51.19
2019-04-30T03:21:50.300Z,51.19
2019-04-30T03:24:15.296Z,51.20
2019-04-30T03:26:41.314Z,51.20
2019-04-30T03:29:10.721Z,51.18
2019-04-30T03:31:33.330Z,51.19
2019-04-30T03:34:01.999Z,51.18
2019-04-30T03:36:25.371Z,51.17
2019-04-30T03:38:51.389Z,51.17
2019-04-30T03:41:19.850Z,51.17
2019-04-30T03:43:43.412Z,51.17
2019-04-30T03:46:10.125Z,51.16
2019-04-30T03:48:35.467Z,51.37
2019-04-30T03:51:01.445Z,51.36
2019-04-30T03:53:29.697Z,51.47
2019-04-30T03:55:53.466Z,51.48
2019-04-30T03:58:21.276Z,51.65
2019-04-30T04:00:46.710Z,51.60
2019-04-30T04:03:11.532Z,51.55
2019-04-30T04:05:39.737Z,51.58
2019-04-30T04:08:03.593Z,51.51
2019-04-30T04:10:29.824Z,51.52
2019-04-30T04:12:55.651Z,51.54
2019-04-30T04:15:21.648Z,51.54
2019-04-30T04:17:50.252Z,51.54
2019-04-30T04:20:13.669Z,51.52
2019-04-30T04:22:40.315Z,51.52
2019-04-30T04:25:05.766Z,51.43
2019-04-30T04:27:31.780Z,51.59
2019-04-30T04:30:00.740Z,51.95
2019-04-30T04:32:24.255Z,51.90
2019-04-30T04:34:50.669Z,52.08
2019-04-30T04:37:15.808Z,52.00
2019-04-30T04:39:42.079Z,52.38
2019-04-30T04:42:10.068Z,52.31
2019-04-30T04:44:33.852Z,52.27
2019-04-30T04:47:00.247Z,52.16
2019-04-30T04:49:25.926Z,52.29
2019-04-30T04:51:51.917Z,52.53
2019-04-30T04:54:19.947Z,52.70
2019-04-30T04:56:43.951Z,52.62
2019-04-30T04:59:10.412Z,52.49
2019-04-30T05:01:36.124Z,52.66
2019-04-30T05:04:02.218Z,52.30
2019-04-30T05:06:29.807Z,52.21
2019-04-30T05:08:54.258Z,52.39
2019-04-30T05:11:20.282Z,52.36
2019-04-30T05:13:46.274Z,52.41
2019-04-30T05:16:12.290Z,52.33
2019-04-30T05:18:39.106Z,52.71
2019-04-30T05:21:04.291Z,52.67
2019-04-30T05:23:30.306Z,52.49
2019-04-30T05:25:56.319Z,52.58
2019-04-30T05:28:22.328Z,52.72
2019-04-30T05:30:49.390Z,53.01
2019-04-30T05:33:15.523Z,53.04
2019-04-30T05:35:41.536Z,52.84
2019-04-30T05:38:09.184Z,53.13
2019-04-30T05:40:33.575Z,52.87
2019-04-30T05:43:00.430Z,52.88
2019-04-30T05:45:25.706Z,53.29
2019-04-30T05:47:51.726Z,53.33
2019-04-30T05:50:19.777Z,53.34
2019-04-30T05:52:43.866Z,53.31
2019-04-30T05:55:09.861Z,53.41
2019-04-30T05:57:35.878Z,53.38
2019-04-30T06:00:01.900Z,53.18
2019-04-30T06:02:30.729Z,53.29
2019-04-30T06:04:53.935Z,52.91
2019-04-30T06:07:19.935Z,53.43
2019-04-30T06:09:45.935Z,53.36
2019-04-30T06:12:11.964Z,53.41
2019-04-30T06:14:48.331Z,53.32
2019-04-30T06:17:04.122Z,53.34
2019-04-30T06:19:30.233Z,53.31
2019-04-30T06:22:05.851Z,52.91
2019-04-30T06:24:22.270Z,53.19
2019-04-30T06:26:49.399Z,53.21
2019-04-30T06:29:14.306Z,53.20
2019-04-30T06:31:43.087Z,53.09
2019-04-30T06:34:08.535Z,53.37
2019-04-30T06:36:32.838Z,53.75
2019-04-30T06:38:59.016Z,53.60
2019-04-30T06:41:24.888Z,53.46
2019-04-30T06:43:50.904Z,53.34
2019-04-30T06:46:18.556Z,53.52
2019-04-30T06:48:45.563Z,53.82
2019-04-30T06:51:09.140Z,53.44
2019-04-30T06:53:34.968Z,53.42
2019-04-30T06:56:01.121Z,53.44
2019-04-30T06:58:28.990Z,53.53
2019-04-30T07:00:53.285Z,53.91
2019-04-30T07:03:19.356Z,53.46
2019-04-30T07:05:45.378Z,53.92
2019-04-30T07:08:12.086Z,53.85
2019-04-30T07:10:37.427Z,53.71
2019-04-30T07:13:03.489Z,53.82
2019-04-30T07:15:29.712Z,53.53
2019-04-30T07:17:55.491Z,53.46
2019-04-30T07:20:21.514Z,53.77
2019-04-30T07:22:52.467Z,53.75
2019-04-30T07:25:13.546Z,53.46
2019-04-30T07:27:40.164Z,53.61
2019-04-30T07:30:05.628Z,53.82
2019-04-30T07:32:31.638Z,54.03
2019-04-30T07:34:59.303Z,53.46
2019-04-30T07:37:24.745Z,53.88
2019-04-30T07:39:49.656Z,54.09
2019-04-30T07:42:15.673Z,53.49
2019-04-30T07:44:41.678Z,53.85
2019-04-30T07:47:09.487Z,53.70
2019-04-30T07:49:47.089Z,53.89
2019-04-30T07:52:01.463Z,53.75
2019-04-30T07:54:25.741Z,53.32
2019-04-30T07:56:51.765Z,53.22
2019-04-30T07:59:19.989Z,52.80
2019-04-30T08:02:00.226Z,53.04
2019-04-30T08:04:09.810Z,52.86
2019-04-30T08:06:35.894Z,52.49
2019-04-30T08:09:02.140Z,52.43
2019-04-30T08:11:29.290Z,52.40
2019-04-30T08:13:53.871Z,52.38
2019-04-30T08:16:19.880Z,52.31
2019-04-30T08:18:45.918Z,52.38
2019-04-30T08:21:11.949Z,52.52
2019-04-30T08:23:39.706Z,52.40
2019-04-30T08:26:04.006Z,52.33
2019-04-30T08:28:30.377Z,52.20
2019-04-30T08:30:56.095Z,52.16
2019-04-30T08:33:22.130Z,52.42
2019-04-30T08:35:49.990Z,52.44
2019-04-30T08:38:14.149Z,52.49
2019-04-30T08:40:53.137Z,52.46
2019-04-30T08:43:06.172Z,52.31
2019-04-30T08:45:34.735Z,51.45
2019-04-30T08:47:59.050Z,50.97
2019-04-30T08:50:24.350Z,50.64
2019-04-30T08:52:50.817Z,50.60
2019-04-30T08:55:17.089Z,50.40
2019-04-30T08:57:42.458Z,50.71
2019-04-30T09:00:09.517Z,50.41
2019-04-30T09:02:34.827Z,50.66
2019-04-30T09:05:00.880Z,50.63
2019-04-30T09:07:26.981Z,50.70
2019-04-30T09:09:53.096Z,50.71
2019-04-30T09:12:19.637Z,50.56
2019-04-30T09:14:45.244Z,50.80
2019-04-30T09:17:11.264Z,50.72
2019-04-30T09:19:38.663Z,50.51
2019-04-30T09:22:12.374Z,50.12
2019-04-30T09:24:31.039Z,50.10
2019-04-30T09:27:04.123Z,50.00
2019-04-30T09:29:30.134Z,50.17
2019-04-30T09:31:59.456Z,50.25
2019-04-30T09:34:25.700Z,50.24
2019-04-30T09:36:51.798Z,50.42
2019-04-30T09:39:19.517Z,50.42
2019-04-30T09:41:43.814Z,50.50
2019-04-30T09:44:10.082Z,50.60
2019-04-30T09:46:35.961Z,50.61
2019-04-30T09:49:02.087Z,50.53
2019-04-30T09:51:30.580Z,50.52
2019-04-30T09:53:58.667Z,50.28
2019-04-30T09:56:26.861Z,50.36
2019-04-30T09:58:52.904Z,50.58
2019-04-30T10:01:18.933Z,50.68
2019-04-30T10:03:45.347Z,50.78
2019-04-30T10:06:10.968Z,50.84
2019-04-30T10:08:47.812Z,50.89
2019-04-30T10:11:03.071Z,50.96
2019-04-30T10:13:29.080Z,51.02
2019-04-30T10:15:55.090Z,51.04
2019-04-30T10:18:21.256Z,51.05
2019-04-30T10:20:47.314Z,51.12
2019-04-30T10:23:13.399Z,51.15
2019-04-30T10:25:39.441Z,51.18
2019-04-30T10:28:05.445Z,50.97
2019-04-30T10:30:31.460Z,50.95
2019-04-30T10:32:59.487Z,50.95
2019-04-30T10:35:23.859Z,50.94
2019-04-30T10:37:49.887Z,50.91
2019-04-30T10:40:15.883Z,50.86
2019-04-30T10:42:41.876Z,50.89
2019-04-30T10:45:09.742Z,50.92
2019-04-30T10:47:33.893Z,50.92
2019-04-30T10:49:59.938Z,50.88
2019-04-30T10:52:25.946Z,50.89
2019-04-30T10:54:51.961Z,50.85
2019-04-30T10:57:18.419Z,50.87
2019-04-30T10:59:43.983Z,50.85
2019-04-30T11:02:10.004Z,50.86
2019-04-30T11:04:35.998Z,50.87
2019-04-30T11:07:02.066Z,50.88
2019-04-30T11:09:29.302Z,50.84
2019-04-30T11:11:54.110Z,50.88
2019-04-30T11:14:20.130Z,50.85
2019-04-30T11:16:46.205Z,50.87
2019-04-30T11:19:12.270Z,50.89
2019-04-30T11:21:38.274Z,50.92
2019-04-30T11:24:04.317Z,50.90
2019-04-30T11:26:31.963Z,50.86
2019-04-30T11:28:56.386Z,50.84
2019-04-30T11:31:22.374Z,50.85
2019-04-30T11:33:48.413Z,50.78
2019-04-30T11:36:14.270Z,50.76
2019-04-30T11:38:40.264Z,50.71
2019-04-30T11:41:06.268Z,50.61
2019-04-30T11:43:32.287Z,50.68
2019-04-30T11:45:58.668Z,50.72
2019-04-30T11:48:24.358Z,50.75
2019-04-30T11:50:50.397Z,50.74
2019-04-30T11:53:25.403Z,50.75
2019-04-30T11:55:42.407Z,50.75
2019-04-30T11:58:21.065Z,50.76
2019-04-30T12:00:34.788Z,50.79
2019-04-30T12:03:00.787Z,50.77
2019-04-30T12:05:28.892Z,50.78
2019-04-30T12:07:52.837Z,50.71
2019-04-30T12:10:19.441Z,50.74
2019-04-30T12:12:44.872Z,50.68
2019-04-30T12:15:10.945Z,50.71
2019-04-30T12:17:36.943Z,50.75
2019-04-30T12:20:03.021Z,50.66
2019-04-30T12:22:29.612Z,50.85
2019-04-30T12:25:02.508Z,50.85
2019-04-30T12:27:21.142Z,51.02
2019-04-30T12:29:47.162Z,50.98
2019-04-30T12:32:13.146Z,51.01
2019-04-30T12:34:39.178Z,51.07
2019-04-30T12:37:05.202Z,51.16
2019-04-30T12:39:31.198Z,51.23
2019-04-30T12:41:58.870Z,51.30
2019-04-30T12:44:23.214Z,51.34
2019-04-30T12:46:49.229Z,51.27
2019-04-30T12:49:15.226Z,51.27
2019-04-30T12:51:45.984Z,51.36
2019-04-30T12:54:07.337Z,51.37
2019-04-30T12:56:33.358Z,51.56
2019-04-30T12:58:59.369Z,51.43
2019-04-30T13:01:25.375Z,51.41
2019-04-30T13:03:58.369Z,51.48
2019-04-30T13:06:17.843Z,51.30
2019-04-30T13:08:43.948Z,51.39
2019-04-30T13:11:12.281Z,51.27
2019-04-30T13:13:36.104Z,51.17
2019-04-30T13:16:01.640Z,51.03
2019-04-30T13:18:29.485Z,50.93
2019-04-30T13:20:53.728Z,50.79
2019-04-30T13:23:19.703Z,50.80
2019-04-30T13:25:51.226Z,51.03
2019-04-30T13:28:11.731Z,51.04
2019-04-30T13:30:39.489Z,50.97
2019-04-30T13:33:03.759Z,50.63
2019-04-30T13:35:29.784Z,50.75
2019-04-30T13:37:55.875Z,50.74
2019-04-30T13:40:21.888Z,50.76
2019-04-30T13:42:48.781Z,50.66
2019-04-30T13:45:13.988Z,50.61
2019-04-30T13:47:39.987Z,50.61
2019-04-30T13:50:06.034Z,50.56
2019-04-30T13:52:32.032Z,50.46
2019-04-30T13:54:58.166Z,50.22
2019-04-30T13:57:24.187Z,50.23
2019-04-30T13:59:51.090Z,50.16
2019-04-30T14:02:16.208Z,50.10
2019-04-30T14:04:42.203Z,50.15
2019-04-30T14:07:08.283Z,50.06
2019-04-30T14:09:34.274Z,50.02
2019-04-30T14:12:00.289Z,49.89
2019-04-30T14:14:26.332Z,49.79
2019-04-30T14:16:52.312Z,49.66
2019-04-30T14:19:19.531Z,49.68
2019-04-30T14:21:44.676Z,49.56
2019-04-30T14:24:10.875Z,49.63
2019-04-30T14:26:36.898Z,49.52
2019-04-30T14:29:03.345Z,49.52
2019-04-30T14:31:29.332Z,49.49
2019-04-30T14:33:55.378Z,49.39
2019-04-30T14:36:21.426Z,49.38
2019-04-30T14:38:48.889Z,49.24
2019-04-30T14:41:13.996Z,49.28
2019-04-30T14:43:42.439Z,49.34
2019-04-30T14:46:05.670Z,49.00
2019-04-30T14:48:32.110Z,49.02
2019-04-30T14:50:57.575Z,48.84
2019-04-30T14:53:23.574Z,48.79
2019-04-30T14:55:49.630Z,48.74
2019-04-30T14:58:15.664Z,48.82
2019-04-30T15:00:41.663Z,48.73
2019-04-30T15:03:09.360Z,48.58
2019-04-30T15:05:40.558Z,48.63
2019-04-30T15:08:00.933Z,48.55
2019-04-30T15:10:25.767Z,48.65
2019-04-30T15:12:51.762Z,49.76
2019-04-30T15:15:19.180Z,50.29
2019-04-30T15:17:43.790Z,50.33
2019-04-30T15:20:09.795Z,49.95
2019-04-30T15:22:35.821Z,49.56
2019-04-30T15:25:01.817Z,49.42
2019-04-30T15:27:28.965Z,49.22
2019-04-30T15:29:57.078Z,49.23
2019-04-30T15:32:19.926Z,49.12
2019-04-30T15:34:45.953Z,49.04
2019-04-30T15:37:19.233Z,49.50
2019-04-30T15:39:39.365Z,49.61
2019-04-30T15:42:04.055Z,49.95
2019-04-30T15:44:30.059Z,49.81
2019-04-30T15:46:56.080Z,49.86
2019-04-30T15:49:22.077Z,49.92
2019-04-30T15:51:48.105Z,49.91
2019-04-30T15:54:14.120Z,49.99
2019-04-30T15:56:42.346Z,50.02
2019-04-30T15:59:06.233Z,49.98
2019-04-30T16:01:32.290Z,49.60
2019-04-30T16:03:58.345Z,49.88
2019-04-30T16:06:24.351Z,49.89
2019-04-30T16:08:50.435Z,49.89
2019-04-30T16:11:16.431Z,49.88
2019-04-30T16:13:42.448Z,50.03
2019-04-30T16:16:09.141Z,50.13
2019-04-30T16:18:34.484Z,50.29
2019-04-30T16:21:00.508Z,50.35
2019-04-30T16:23:26.544Z,50.38
2019-04-30T16:25:52.587Z,50.39
2019-04-30T16:28:19.572Z,50.40
2019-04-30T16:30:44.638Z,50.41
2019-04-30T16:33:10.676Z,50.38
2019-04-30T16:35:36.702Z,50.34
2019-04-30T16:38:02.708Z,50.29
2019-04-30T16:40:29.104Z,50.24
2019-04-30T16:42:54.761Z,50.20
2019-04-30T16:45:20.804Z,49.87
2019-04-30T16:47:46.814Z,50.03
2019-04-30T16:50:12.846Z,50.05
2019-04-30T16:52:39.336Z,50.07
2019-04-30T16:55:07.404Z,50.08
2019-04-30T16:57:33.499Z,50.14
2019-04-30T16:59:59.512Z,50.00
2019-04-30T17:02:25.526Z,50.07
2019-04-30T17:04:51.720Z,50.03
2019-04-30T17:07:18.777Z,50.02
2019-04-30T17:09:43.741Z,49.97
2019-04-30T17:12:10.223Z,50.07
2019-04-30T17:14:36.387Z,50.00
2019-04-30T17:17:02.379Z,50.11
2019-04-30T17:19:29.211Z,49.99
2019-04-30T17:21:54.423Z,50.03
2019-04-30T17:24:20.452Z,49.98
2019-04-30T17:26:46.463Z,49.96
2019-04-30T17:29:12.490Z,50.11
2019-04-30T17:31:38.516Z,49.99
2019-04-30T17:34:04.504Z,50.01
2019-04-30T17:36:30.599Z,49.91
2019-04-30T17:38:56.597Z,49.89
2019-04-30T17:41:22.642Z,49.80
2019-04-30T17:43:49.571Z,49.83
2019-04-30T17:46:14.685Z,49.73
2019-04-30T17:48:40.716Z,49.74
2019-04-30T17:51:06.730Z,49.76
2019-04-30T17:53:32.734Z,49.68
2019-04-30T17:55:58.757Z,49.88
2019-04-30T17:58:24.772Z,49.94
2019-04-30T18:00:50.809Z,49.92
2019-04-30T18:03:18.886Z,49.87
2019-04-30T18:05:42.896Z,49.99
2019-04-30T18:08:09.554Z,49.87
2019-04-30T18:10:35.554Z,49.88
2019-04-30T18:13:01.572Z,49.82
2019-04-30T18:15:27.618Z,49.83
2019-04-30T18:17:53.651Z,49.72
2019-04-30T18:20:19.646Z,49.79
2019-04-30T18:22:45.669Z,49.71
2019-04-30T18:25:11.696Z,49.62
2019-04-30T18:27:46.011Z,49.53
2019-04-30T18:30:03.784Z,49.44
2019-04-30T18:32:29.793Z,49.49
2019-04-30T18:34:55.822Z,49.51
2019-04-30T18:37:21.833Z,49.62
2019-04-30T18:39:47.892Z,49.59
2019-04-30T18:42:13.885Z,49.60
2019-04-30T18:44:39.915Z,49.44
2019-04-30T18:47:05.904Z,49.51
2019-04-30T18:49:31.907Z,49.46
2019-04-30T18:51:59.015Z,49.60
2019-04-30T18:54:23.996Z,49.56
2019-04-30T18:56:50.017Z,49.69
2019-04-30T18:59:16.047Z,49.87
2019-04-30T19:01:42.049Z,49.81
2019-04-30T19:04:09.207Z,49.86
2019-04-30T19:06:34.801Z,49.88
2019-04-30T19:09:00.794Z,49.88
2019-04-30T19:11:28.808Z,49.90
2019-04-30T19:13:52.854Z,49.89
2019-04-30T19:16:24.694Z,49.95
2019-04-30T19:18:44.944Z,49.93
2019-04-30T19:21:10.963Z,50.07
2019-04-30T19:23:38.894Z,50.04
2019-04-30T19:26:02.980Z,50.11
2019-04-30T19:28:29.084Z,50.18
2019-04-30T19:30:58.310Z,50.20
2019-04-30T19:33:21.145Z,50.23
2019-04-30T19:35:50.393Z,50.28
2019-04-30T19:38:13.176Z,50.30
2019-04-30T19:40:39.257Z,50.34
2019-04-30T19:43:05.206Z,50.34
2019-04-30T19:45:31.208Z,50.24
2019-04-30T19:47:58.673Z,50.19
2019-04-30T19:50:23.223Z,50.13
2019-04-30T19:52:49.222Z,50.05
2019-04-30T19:55:15.237Z,50.10
2019-04-30T19:57:41.238Z,50.15
2019-04-30T20:00:09.227Z,50.22
2019-04-30T20:02:33.272Z,50.27
2019-04-30T20:05:01.169Z,50.32
2019-04-30T20:07:25.312Z,50.37
2019-04-30T20:10:00.198Z,50.39
2019-04-30T20:12:18.807Z,50.37
2019-04-30T20:14:43.339Z,50.40
2019-04-30T20:17:09.352Z,50.41
2019-04-30T20:19:35.367Z,50.41
2019-04-30T20:22:10.795Z,50.43
2019-04-30T20:24:39.331Z,50.49
2019-04-30T20:27:07.181Z,50.49
2019-04-30T20:29:29.531Z,50.50
2019-04-30T20:31:56.140Z,50.50
2019-04-30T20:34:22.131Z,50.50
2019-04-30T20:36:48.158Z,50.51
2019-04-30T20:39:15.976Z,50.53
2019-04-30T20:41:40.487Z,50.55
2019-04-30T20:44:06.477Z,50.86
2019-04-30T20:46:40.139Z,50.65
2019-04-30T20:49:09.079Z,50.70
2019-04-30T20:51:34.676Z,50.87
2019-04-30T20:54:01.415Z,50.77
2019-04-30T20:56:29.114Z,50.92
2019-04-30T20:58:58.186Z,50.83
2019-04-30T21:01:21.031Z,50.83
2019-04-30T21:03:47.030Z,51.02
2019-04-30T21:06:13.029Z,50.90
2019-04-30T21:08:40.557Z,50.85
2019-04-30T21:11:06.548Z,50.85
2019-04-30T21:13:32.710Z,50.79
2019-04-30T21:16:00.482Z,50.90
2019-04-30T21:18:26.496Z,50.79
2019-04-30T21:20:52.532Z,50.89
2019-04-30T21:23:19.459Z,50.84
2019-04-30T21:25:44.573Z,50.93
2019-04-30T21:28:10.583Z,51.00
2019-04-30T21:30:36.613Z,50.94
2019-04-30T21:33:02.611Z,51.02
2019-04-30T21:35:28.607Z,50.99
2019-04-30T21:37:54.623Z,50.98
2019-04-30T21:40:20.728Z,51.00
2019-04-30T21:42:46.756Z,51.06
2019-04-30T21:45:12.768Z,51.08
2019-04-30T21:47:38.766Z,51.00
2019-04-30T21:50:04.792Z,51.00
2019-04-30T21:52:30.804Z,51.01
2019-04-30T21:54:56.821Z,51.09
2019-04-30T21:57:22.818Z,51.06
2019-04-30T21:59:48.836Z,51.09
2019-04-30T22:02:14.829Z,51.05
2019-04-30T22:04:40.831Z,50.97
2019-04-30T22:07:06.856Z,50.90
2019-04-30T22:09:32.852Z,50.88
2019-04-30T22:11:59.956Z,50.81
2019-04-30T22:14:25.951Z,50.78
2019-04-30T22:16:51.972Z,50.76
2019-04-30T22:19:17.990Z,50.72
2019-04-30T22:21:44.019Z,50.65
2019-04-30T22:24:10.034Z,50.63
2019-04-30T22:26:36.032Z,50.59
2019-04-30T22:29:02.058Z,50.59
2019-04-30T22:31:29.621Z,50.56
2019-04-30T22:33:54.067Z,50.52
2019-04-30T22:36:20.068Z,50.52
2019-04-30T22:38:46.084Z,50.50
2019-04-30T22:41:12.082Z,50.45
2019-04-30T22:43:38.136Z,50.53
2019-04-30T22:46:04.106Z,50.54
2019-04-30T22:48:30.109Z,50.46
2019-04-30T22:50:56.126Z,50.53
2019-04-30T22:53:22.150Z,50.51
2019-04-30T22:55:48.140Z,50.52
2019-04-30T22:58:14.191Z,50.45
2019-04-30T23:00:40.187Z,50.48
2019-04-30T23:03:06.187Z,50.46
2019-04-30T23:05:32.211Z,50.45
2019-04-30T23:07:58.200Z,50.46
2019-04-30T23:10:24.222Z,50.36
2019-04-30T23:12:50.220Z,50.40
2019-04-30T23:15:16.240Z,50.42
2019-04-30T23:17:42.235Z,50.38
2019-04-30T23:20:08.260Z,50.34
2019-04-30T23:22:34.277Z,50.34
2019-04-30T23:25:00.275Z,50.32
2019-04-30T23:27:26.298Z,50.31
2019-04-30T23:30:02.644Z,50.25
2019-04-30T23:32:18.355Z,50.27
2019-04-30T23:34:44.351Z,50.24
2019-04-30T23:37:10.447Z,50.22
2019-04-30T23:39:36.463Z,50.21
2019-04-30T23:42:02.442Z,50.18
2019-04-30T23:44:28.462Z,50.22
2019-04-30T23:46:54.458Z,50.10
2019-04-30T23:49:20.478Z,50.10
2019-04-30T23:51:46.475Z,50.08
2019-04-30T23:54:12.487Z,50.15
2019-04-30T23:56:38.494Z,50.00
2019-04-30T23:59:04.497Z,50.06
